sensor_id;sensor_type;location;lat;lon;timestamp;temperature;humidity
80232;DHT22;74189;42.124;24.752;2023-11-22T00:02:22;9.60;64.30
80232;DHT22;74189;42.124;24.752;2023-11-22T00:04:48;9.60;64.20
80232;DHT22;74189;42.124;24.752;2023-11-22T00:07:13;9.60;64.20
80232;DHT22;74189;42.124;24.752;2023-11-22T00:09:39;9.70;64.20
80232;DHT22;74189;42.124;24.752;2023-11-22T00:12:05;9.70;64.10
80232;DHT22;74189;42.124;24.752;2023-11-22T00:14:31;9.70;63.90
80232;DHT22;74189;42.124;24.752;2023-11-22T00:16:57;9.70;64.90
80232;DHT22;74189;42.124;24.752;2023-11-22T00:19:22;9.70;64.00
80232;DHT22;74189;42.124;24.752;2023-11-22T00:21:49;9.70;63.90
80232;DHT22;74189;42.124;24.752;2023-11-22T00:24:14;9.80;63.60
80232;DHT22;74189;42.124;24.752;2023-11-22T00:26:40;9.80;63.40
80232;DHT22;74189;42.124;24.752;2023-11-22T00:29:06;9.80;63.20
80232;DHT22;74189;42.124;24.752;2023-11-22T00:31:32;9.90;63.40
80232;DHT22;74189;42.124;24.752;2023-11-22T00:33:58;9.90;63.50
80232;DHT22;74189;42.124;24.752;2023-11-22T00:36:23;9.90;63.50
80232;DHT22;74189;42.124;24.752;2023-11-22T00:38:49;9.90;63.50
80232;DHT22;74189;42.124;24.752;2023-11-22T00:41:15;9.90;63.50
80232;DHT22;74189;42.124;24.752;2023-11-22T00:43:41;10.00;63.60
80232;DHT22;74189;42.124;24.752;2023-11-22T00:46:06;10.00;63.80
80232;DHT22;74189;42.124;24.752;2023-11-22T00:48:32;10.00;63.50
80232;DHT22;74189;42.124;24.752;2023-11-22T00:50:58;10.00;63.50
80232;DHT22;74189;42.124;24.752;2023-11-22T00:53:24;10.00;63.50
80232;DHT22;74189;42.124;24.752;2023-11-22T00:55:50;10.00;63.50
80232;DHT22;74189;42.124;24.752;2023-11-22T00:58:15;10.00;63.40
80232;DHT22;74189;42.124;24.752;2023-11-22T01:00:41;9.90;63.40
80232;DHT22;74189;42.124;24.752;2023-11-22T01:03:07;10.00;63.40
80232;DHT22;74189;42.124;24.752;2023-11-22T01:05:37;10.10;63.40
80232;DHT22;74189;42.124;24.752;2023-11-22T01:08:03;10.00;63.40
80232;DHT22;74189;42.124;24.752;2023-11-22T01:10:28;10.10;63.50
80232;DHT22;74189;42.124;24.752;2023-11-22T01:12:55;10.10;63.60
80232;DHT22;74189;42.124;24.752;2023-11-22T01:15:21;10.10;63.60
80232;DHT22;74189;42.124;24.752;2023-11-22T01:17:47;10.10;63.50
80232;DHT22;74189;42.124;24.752;2023-11-22T01:20:12;10.10;63.20
80232;DHT22;74189;42.124;24.752;2023-11-22T01:22:39;10.10;63.10
80232;DHT22;74189;42.124;24.752;2023-11-22T01:25:05;10.10;63.20
80232;DHT22;74189;42.124;24.752;2023-11-22T01:27:31;10.10;63.30
80232;DHT22;74189;42.124;24.752;2023-11-22T01:29:56;10.10;63.20
80232;DHT22;74189;42.124;24.752;2023-11-22T01:32:22;10.20;63.20
80232;DHT22;74189;42.124;24.752;2023-11-22T01:34:48;10.20;63.20
80232;DHT22;74189;42.124;24.752;2023-11-22T01:37:13;10.20;63.30
80232;DHT22;74189;42.124;24.752;2023-11-22T01:39:40;10.20;63.30
80232;DHT22;74189;42.124;24.752;2023-11-22T01:42:07;10.20;63.20
80232;DHT22;74189;42.124;24.752;2023-11-22T01:44:33;10.20;63.40
80232;DHT22;74189;42.124;24.752;2023-11-22T01:46:59;10.20;63.40
80232;DHT22;74189;42.124;24.752;2023-11-22T01:49:24;10.10;63.50
80232;DHT22;74189;42.124;24.752;2023-11-22T01:51:50;10.10;63.60
80232;DHT22;74189;42.124;24.752;2023-11-22T01:54:20;10.10;63.50
80232;DHT22;74189;42.124;24.752;2023-11-22T01:56:48;10.20;63.60
80232;DHT22;74189;42.124;24.752;2023-11-22T01:59:15;10.20;63.50
80232;DHT22;74189;42.124;24.752;2023-11-22T02:01:42;10.10;63.50
80232;DHT22;74189;42.124;24.752;2023-11-22T02:04:08;10.10;63.60
80232;DHT22;74189;42.124;24.752;2023-11-22T02:06:35;10.10;63.70
80232;DHT22;74189;42.124;24.752;2023-11-22T02:09:01;10.10;63.80
80232;DHT22;74189;42.124;24.752;2023-11-22T02:11:26;10.20;64.00
80232;DHT22;74189;42.124;24.752;2023-11-22T02:13:53;10.10;63.90
80232;DHT22;74189;42.124;24.752;2023-11-22T02:16:19;10.10;63.90
80232;DHT22;74189;42.124;24.752;2023-11-22T02:18:45;10.10;63.80
80232;DHT22;74189;42.124;24.752;2023-11-22T02:21:11;10.20;63.70
80232;DHT22;74189;42.124;24.752;2023-11-22T02:23:37;10.10;63.60
80232;DHT22;74189;42.124;24.752;2023-11-22T02:26:02;10.10;63.80
80232;DHT22;74189;42.124;24.752;2023-11-22T02:28:28;10.10;63.70
80232;DHT22;74189;42.124;24.752;2023-11-22T02:30:54;10.10;63.50
80232;DHT22;74189;42.124;24.752;2023-11-22T02:33:22;10.10;63.50
80232;DHT22;74189;42.124;24.752;2023-11-22T02:35:48;10.10;64.50
80232;DHT22;74189;42.124;24.752;2023-11-22T02:38:15;10.10;63.60
80232;DHT22;74189;42.124;24.752;2023-11-22T02:40:42;10.10;63.50
80232;DHT22;74189;42.124;24.752;2023-11-22T02:43:08;10.10;63.50
80232;DHT22;74189;42.124;24.752;2023-11-22T02:45:34;10.10;63.60
80232;DHT22;74189;42.124;24.752;2023-11-22T02:48:00;10.10;63.60
80232;DHT22;74189;42.124;24.752;2023-11-22T02:50:29;10.10;63.70
80232;DHT22;74189;42.124;24.752;2023-11-22T02:52:57;10.10;63.80
80232;DHT22;74189;42.124;24.752;2023-11-22T02:55:23;10.10;64.90
80232;DHT22;74189;42.124;24.752;2023-11-22T02:57:50;10.10;63.90
80232;DHT22;74189;42.124;24.752;2023-11-22T03:00:16;10.10;63.90
80232;DHT22;74189;42.124;24.752;2023-11-22T03:02:45;10.10;63.90
80232;DHT22;74189;42.124;24.752;2023-11-22T03:05:12;10.10;64.00
80232;DHT22;74189;42.124;24.752;2023-11-22T03:07:40;10.10;63.90
80232;DHT22;74189;42.124;24.752;2023-11-22T03:10:06;10.10;63.80
80232;DHT22;74189;42.124;24.752;2023-11-22T03:12:33;10.10;63.80
80232;DHT22;74189;42.124;24.752;2023-11-22T03:14:59;10.10;63.80
80232;DHT22;74189;42.124;24.752;2023-11-22T03:17:27;10.10;63.80
80232;DHT22;74189;42.124;24.752;2023-11-22T03:19:55;10.10;63.90
80232;DHT22;74189;42.124;24.752;2023-11-22T03:22:24;10.10;64.00
80232;DHT22;74189;42.124;24.752;2023-11-22T03:24:50;10.10;64.10
80232;DHT22;74189;42.124;24.752;2023-11-22T03:27:16;10.10;64.10
80232;DHT22;74189;42.124;24.752;2023-11-22T03:29:42;10.10;64.00
80232;DHT22;74189;42.124;24.752;2023-11-22T03:32:07;10.10;64.00
80232;DHT22;74189;42.124;24.752;2023-11-22T03:34:33;10.10;64.10
80232;DHT22;74189;42.124;24.752;2023-11-22T03:36:59;10.10;64.10
80232;DHT22;74189;42.124;24.752;2023-11-22T03:39:24;10.10;64.10
80232;DHT22;74189;42.124;24.752;2023-11-22T03:41:50;10.10;64.10
80232;DHT22;74189;42.124;24.752;2023-11-22T03:44:16;10.10;64.20
80232;DHT22;74189;42.124;24.752;2023-11-22T03:46:42;10.10;64.30
80232;DHT22;74189;42.124;24.752;2023-11-22T03:49:08;10.10;64.30
80232;DHT22;74189;42.124;24.752;2023-11-22T03:51:34;10.10;64.40
80232;DHT22;74189;42.124;24.752;2023-11-22T03:54:01;10.10;64.40
80232;DHT22;74189;42.124;24.752;2023-11-22T03:56:28;10.10;64.40
80232;DHT22;74189;42.124;24.752;2023-11-22T03:58:54;10.10;64.60
80232;DHT22;74189;42.124;24.752;2023-11-22T04:01:19;10.10;64.80
80232;DHT22;74189;42.124;24.752;2023-11-22T04:03:46;10.10;64.80
80232;DHT22;74189;42.124;24.752;2023-11-22T04:06:17;10.10;64.80
80232;DHT22;74189;42.124;24.752;2023-11-22T04:08:43;10.10;65.20
80232;DHT22;74189;42.124;24.752;2023-11-22T04:11:09;10.10;64.90
80232;DHT22;74189;42.124;24.752;2023-11-22T04:13:35;10.10;64.90
80232;DHT22;74189;42.124;24.752;2023-11-22T04:16:01;10.10;65.00
80232;DHT22;74189;42.124;24.752;2023-11-22T04:18:26;10.10;65.00
80232;DHT22;74189;42.124;24.752;2023-11-22T04:20:52;10.10;65.00
80232;DHT22;74189;42.124;24.752;2023-11-22T04:23:18;10.10;65.10
80232;DHT22;74189;42.124;24.752;2023-11-22T04:25:44;10.10;65.00
80232;DHT22;74189;42.124;24.752;2023-11-22T04:28:10;10.10;65.00
80232;DHT22;74189;42.124;24.752;2023-11-22T04:30:36;10.10;65.00
80232;DHT22;74189;42.124;24.752;2023-11-22T04:33:01;10.10;65.00
80232;DHT22;74189;42.124;24.752;2023-11-22T04:35:27;10.10;64.80
80232;DHT22;74189;42.124;24.752;2023-11-22T04:37:53;10.10;64.80
80232;DHT22;74189;42.124;24.752;2023-11-22T04:40:21;10.20;64.90
80232;DHT22;74189;42.124;24.752;2023-11-22T04:42:47;10.20;64.70
80232;DHT22;74189;42.124;24.752;2023-11-22T04:45:13;10.20;64.80
80232;DHT22;74189;42.124;24.752;2023-11-22T04:47:39;10.20;64.90
80232;DHT22;74189;42.124;24.752;2023-11-22T04:50:05;10.20;64.80
80232;DHT22;74189;42.124;24.752;2023-11-22T04:52:32;10.20;64.70
80232;DHT22;74189;42.124;24.752;2023-11-22T04:54:58;10.20;64.60
80232;DHT22;74189;42.124;24.752;2023-11-22T04:57:23;10.20;64.50
80232;DHT22;74189;42.124;24.752;2023-11-22T04:59:49;10.20;64.40
80232;DHT22;74189;42.124;24.752;2023-11-22T05:02:14;10.20;64.60
80232;DHT22;74189;42.124;24.752;2023-11-22T05:04:41;10.20;63.70
80232;DHT22;74189;42.124;24.752;2023-11-22T05:07:08;10.20;63.60
80232;DHT22;74189;42.124;24.752;2023-11-22T05:09:34;10.20;63.70
80232;DHT22;74189;42.124;24.752;2023-11-22T05:12:00;10.10;63.50
80232;DHT22;74189;42.124;24.752;2023-11-22T05:14:25;10.10;63.80
80232;DHT22;74189;42.124;24.752;2023-11-22T05:16:52;10.10;63.80
80232;DHT22;74189;42.124;24.752;2023-11-22T05:19:17;10.10;64.00
80232;DHT22;74189;42.124;24.752;2023-11-22T05:21:43;10.10;64.10
80232;DHT22;74189;42.124;24.752;2023-11-22T05:24:09;10.10;64.00
80232;DHT22;74189;42.124;24.752;2023-11-22T05:26:34;10.10;64.70
80232;DHT22;74189;42.124;24.752;2023-11-22T05:29:00;10.10;64.50
80232;DHT22;74189;42.124;24.752;2023-11-22T05:31:26;10.10;64.80
80232;DHT22;74189;42.124;24.752;2023-11-22T05:33:51;10.10;65.10
80232;DHT22;74189;42.124;24.752;2023-11-22T05:36:17;10.10;65.10
80232;DHT22;74189;42.124;24.752;2023-11-22T05:38:43;10.10;65.10
80232;DHT22;74189;42.124;24.752;2023-11-22T05:41:08;10.10;67.30
80232;DHT22;74189;42.124;24.752;2023-11-22T05:43:34;10.10;66.20
80232;DHT22;74189;42.124;24.752;2023-11-22T05:46:03;10.10;66.20
80232;DHT22;74189;42.124;24.752;2023-11-22T05:48:28;10.10;66.60
80232;DHT22;74189;42.124;24.752;2023-11-22T05:50:54;10.10;66.80
80232;DHT22;74189;42.124;24.752;2023-11-22T05:53:20;10.10;67.00
80232;DHT22;74189;42.124;24.752;2023-11-22T05:55:47;10.20;67.30
80232;DHT22;74189;42.124;24.752;2023-11-22T05:58:16;10.20;67.30
80232;DHT22;74189;42.124;24.752;2023-11-22T06:00:45;10.20;67.20
80232;DHT22;74189;42.124;24.752;2023-11-22T06:03:12;10.20;67.00
80232;DHT22;74189;42.124;24.752;2023-11-22T06:05:40;10.20;67.20
80232;DHT22;74189;42.124;24.752;2023-11-22T06:08:06;10.20;67.50
80232;DHT22;74189;42.124;24.752;2023-11-22T06:10:32;10.30;67.40
80232;DHT22;74189;42.124;24.752;2023-11-22T06:12:57;10.30;67.30
80232;DHT22;74189;42.124;24.752;2023-11-22T06:15:23;10.30;67.30
80232;DHT22;74189;42.124;24.752;2023-11-22T06:17:49;10.30;68.40
80232;DHT22;74189;42.124;24.752;2023-11-22T06:20:15;10.30;67.60
80232;DHT22;74189;42.124;24.752;2023-11-22T06:22:41;10.30;67.50
80232;DHT22;74189;42.124;24.752;2023-11-22T06:25:17;10.40;67.60
80232;DHT22;74189;42.124;24.752;2023-11-22T06:27:42;10.40;67.60
80232;DHT22;74189;42.124;24.752;2023-11-22T06:30:08;10.40;67.70
80232;DHT22;74189;42.124;24.752;2023-11-22T06:32:34;10.40;67.80
80232;DHT22;74189;42.124;24.752;2023-11-22T06:35:00;10.40;67.80
80232;DHT22;74189;42.124;24.752;2023-11-22T06:37:26;10.40;67.70
80232;DHT22;74189;42.124;24.752;2023-11-22T06:39:52;10.40;67.70
80232;DHT22;74189;42.124;24.752;2023-11-22T06:42:18;10.50;67.80
80232;DHT22;74189;42.124;24.752;2023-11-22T06:44:45;10.50;67.90
80232;DHT22;74189;42.124;24.752;2023-11-22T06:47:13;10.50;68.00
80232;DHT22;74189;42.124;24.752;2023-11-22T06:49:39;10.50;69.00
80232;DHT22;74189;42.124;24.752;2023-11-22T06:52:05;10.50;68.10
80232;DHT22;74189;42.124;24.752;2023-11-22T06:54:30;10.60;68.50
80232;DHT22;74189;42.124;24.752;2023-11-22T06:56:56;10.50;68.50
80232;DHT22;74189;42.124;24.752;2023-11-22T06:59:22;10.60;68.50
80232;DHT22;74189;42.124;24.752;2023-11-22T07:01:48;10.60;68.50
80232;DHT22;74189;42.124;24.752;2023-11-22T07:04:14;10.60;68.40
80232;DHT22;74189;42.124;24.752;2023-11-22T07:06:39;10.60;68.30
80232;DHT22;74189;42.124;24.752;2023-11-22T07:09:05;10.60;68.40
80232;DHT22;74189;42.124;24.752;2023-11-22T07:11:35;10.70;68.40
80232;DHT22;74189;42.124;24.752;2023-11-22T07:14:02;10.70;68.50
80232;DHT22;74189;42.124;24.752;2023-11-22T07:16:29;10.70;68.60
80232;DHT22;74189;42.124;24.752;2023-11-22T07:18:56;10.70;69.80
80232;DHT22;74189;42.124;24.752;2023-11-22T07:21:22;10.70;68.70
80232;DHT22;74189;42.124;24.752;2023-11-22T07:23:48;10.70;68.70
80232;DHT22;74189;42.124;24.752;2023-11-22T07:26:13;10.70;68.40
80232;DHT22;74189;42.124;24.752;2023-11-22T07:28:40;10.80;68.60
80232;DHT22;74189;42.124;24.752;2023-11-22T07:31:08;10.70;68.80
80232;DHT22;74189;42.124;24.752;2023-11-22T07:33:35;10.80;68.90
80232;DHT22;74189;42.124;24.752;2023-11-22T07:36:01;10.80;69.60
80232;DHT22;74189;42.124;24.752;2023-11-22T07:38:28;10.80;69.70
80232;DHT22;74189;42.124;24.752;2023-11-22T07:40:54;10.80;69.50
80232;DHT22;74189;42.124;24.752;2023-11-22T07:43:22;10.80;69.30
80232;DHT22;74189;42.124;24.752;2023-11-22T07:45:47;10.90;69.10
80232;DHT22;74189;42.124;24.752;2023-11-22T07:48:14;10.90;68.90
80232;DHT22;74189;42.124;24.752;2023-11-22T07:50:40;10.90;68.90
80232;DHT22;74189;42.124;24.752;2023-11-22T07:53:09;10.90;68.70
80232;DHT22;74189;42.124;24.752;2023-11-22T07:55:37;10.90;68.20
80232;DHT22;74189;42.124;24.752;2023-11-22T07:58:03;10.90;67.50
80232;DHT22;74189;42.124;24.752;2023-11-22T08:00:32;10.90;67.00
80232;DHT22;74189;42.124;24.752;2023-11-22T08:02:59;10.80;67.40
80232;DHT22;74189;42.124;24.752;2023-11-22T08:05:30;10.80;67.60
80232;DHT22;74189;42.124;24.752;2023-11-22T08:08:04;10.90;67.70
80232;DHT22;74189;42.124;24.752;2023-11-22T08:10:37;10.90;67.80
80232;DHT22;74189;42.124;24.752;2023-11-22T08:13:03;10.90;67.80
80232;DHT22;74189;42.124;24.752;2023-11-22T08:15:29;10.90;67.60
80232;DHT22;74189;42.124;24.752;2023-11-22T08:17:55;10.90;67.30
80232;DHT22;74189;42.124;24.752;2023-11-22T08:20:20;10.90;67.20
80232;DHT22;74189;42.124;24.752;2023-11-22T08:22:47;10.90;67.20
80232;DHT22;74189;42.124;24.752;2023-11-22T08:25:16;11.00;67.40
80232;DHT22;74189;42.124;24.752;2023-11-22T08:27:42;11.00;67.30
80232;DHT22;74189;42.124;24.752;2023-11-22T08:30:09;11.00;66.90
80232;DHT22;74189;42.124;24.752;2023-11-22T08:32:42;11.10;66.60
80232;DHT22;74189;42.124;24.752;2023-11-22T08:35:09;11.10;66.80
80232;DHT22;74189;42.124;24.752;2023-11-22T08:37:35;11.10;66.80
80232;DHT22;74189;42.124;24.752;2023-11-22T08:40:05;11.10;66.60
80232;DHT22;74189;42.124;24.752;2023-11-22T08:42:30;11.10;66.80
80232;DHT22;74189;42.124;24.752;2023-11-22T08:44:56;11.10;66.10
80232;DHT22;74189;42.124;24.752;2023-11-22T08:47:22;11.20;66.20
80232;DHT22;74189;42.124;24.752;2023-11-22T08:49:47;11.20;66.10
80232;DHT22;74189;42.124;24.752;2023-11-22T08:52:14;11.20;66.40
80232;DHT22;74189;42.124;24.752;2023-11-22T08:54:39;11.20;66.30
80232;DHT22;74189;42.124;24.752;2023-11-22T08:57:06;11.20;66.50
80232;DHT22;74189;42.124;24.752;2023-11-22T08:59:33;11.20;66.10
80232;DHT22;74189;42.124;24.752;2023-11-22T09:02:04;11.30;66.30
80232;DHT22;74189;42.124;24.752;2023-11-22T09:04:29;11.30;66.20
80232;DHT22;74189;42.124;24.752;2023-11-22T09:06:57;11.30;66.20
80232;DHT22;74189;42.124;24.752;2023-11-22T09:09:23;11.40;66.30
80232;DHT22;74189;42.124;24.752;2023-11-22T09:11:58;11.40;66.40
80232;DHT22;74189;42.124;24.752;2023-11-22T09:14:25;11.40;66.10
80232;DHT22;74189;42.124;24.752;2023-11-22T09:16:51;11.40;66.00
80232;DHT22;74189;42.124;24.752;2023-11-22T09:19:21;11.40;65.70
80232;DHT22;74189;42.124;24.752;2023-11-22T09:21:47;11.50;65.60
80232;DHT22;74189;42.124;24.752;2023-11-22T09:24:12;11.50;65.50
80232;DHT22;74189;42.124;24.752;2023-11-22T09:26:38;11.50;65.80
80232;DHT22;74189;42.124;24.752;2023-11-22T09:29:04;11.50;65.70
80232;DHT22;74189;42.124;24.752;2023-11-22T09:31:30;11.50;66.00
80232;DHT22;74189;42.124;24.752;2023-11-22T09:33:56;11.50;65.80
80232;DHT22;74189;42.124;24.752;2023-11-22T09:36:23;11.50;65.90
80232;DHT22;74189;42.124;24.752;2023-11-22T09:38:50;11.60;66.00
80232;DHT22;74189;42.124;24.752;2023-11-22T09:41:17;11.60;66.30
80232;DHT22;74189;42.124;24.752;2023-11-22T09:43:43;11.50;66.50
80232;DHT22;74189;42.124;24.752;2023-11-22T09:46:12;11.60;66.50
80232;DHT22;74189;42.124;24.752;2023-11-22T09:48:39;11.60;66.50
80232;DHT22;74189;42.124;24.752;2023-11-22T09:51:17;11.60;66.30
80232;DHT22;74189;42.124;24.752;2023-11-22T09:53:56;11.60;66.50
80232;DHT22;74189;42.124;24.752;2023-11-22T09:56:23;11.60;66.70
80232;DHT22;74189;42.124;24.752;2023-11-22T09:58:53;11.60;66.80
80232;DHT22;74189;42.124;24.752;2023-11-22T10:01:22;11.60;67.30
80232;DHT22;74189;42.124;24.752;2023-11-22T10:03:48;11.60;68.30
80232;DHT22;74189;42.124;24.752;2023-11-22T10:06:13;11.60;67.10
80232;DHT22;74189;42.124;24.752;2023-11-22T10:08:40;11.60;66.90
80232;DHT22;74189;42.124;24.752;2023-11-22T10:11:07;11.60;67.90
80232;DHT22;74189;42.124;24.752;2023-11-22T10:13:33;11.60;67.20
80232;DHT22;74189;42.124;24.752;2023-11-22T10:16:28;11.60;67.40
80232;DHT22;74189;42.124;24.752;2023-11-22T10:18:54;11.60;67.10
80232;DHT22;74189;42.124;24.752;2023-11-22T10:21:27;11.60;67.20
80232;DHT22;74189;42.124;24.752;2023-11-22T10:23:56;11.60;67.10
80232;DHT22;74189;42.124;24.752;2023-11-22T10:26:22;11.60;66.90
80232;DHT22;74189;42.124;24.752;2023-11-22T10:28:52;11.60;66.40
80232;DHT22;74189;42.124;24.752;2023-11-22T10:31:19;11.60;66.40
80232;DHT22;74189;42.124;24.752;2023-11-22T10:33:47;11.60;66.70
80232;DHT22;74189;42.124;24.752;2023-11-22T10:36:14;11.60;67.00
80232;DHT22;74189;42.124;24.752;2023-11-22T10:38:41;11.60;66.80
80232;DHT22;74189;42.124;24.752;2023-11-22T10:41:08;11.60;66.60
80232;DHT22;74189;42.124;24.752;2023-11-22T10:43:37;11.60;66.50
80232;DHT22;74189;42.124;24.752;2023-11-22T10:46:05;11.60;66.70
80232;DHT22;74189;42.124;24.752;2023-11-22T10:48:32;11.70;66.80
80232;DHT22;74189;42.124;24.752;2023-11-22T10:51:02;11.60;66.90
80232;DHT22;74189;42.124;24.752;2023-11-22T10:53:34;11.70;66.90
80232;DHT22;74189;42.124;24.752;2023-11-22T10:56:14;11.70;66.80
80232;DHT22;74189;42.124;24.752;2023-11-22T10:58:48;11.70;67.10
80232;DHT22;74189;42.124;24.752;2023-11-22T11:01:17;11.70;66.90
80232;DHT22;74189;42.124;24.752;2023-11-22T11:03:53;11.70;66.90
80232;DHT22;74189;42.124;24.752;2023-11-22T11:06:26;11.70;66.80
80232;DHT22;74189;42.124;24.752;2023-11-22T11:09:00;11.80;66.80
80232;DHT22;74189;42.124;24.752;2023-11-22T11:11:28;11.70;67.00
80232;DHT22;74189;42.124;24.752;2023-11-22T11:13:54;11.70;67.20
80232;DHT22;74189;42.124;24.752;2023-11-22T11:16:22;11.80;67.20
80232;DHT22;74189;42.124;24.752;2023-11-22T11:18:49;11.80;66.90
80232;DHT22;74189;42.124;24.752;2023-11-22T11:21:15;11.80;66.80
80232;DHT22;74189;42.124;24.752;2023-11-22T11:23:41;11.80;66.60
80232;DHT22;74189;42.124;24.752;2023-11-22T11:26:18;11.80;66.70
80232;DHT22;74189;42.124;24.752;2023-11-22T11:28:47;11.80;67.00
80232;DHT22;74189;42.124;24.752;2023-11-22T11:31:14;11.80;67.00
80232;DHT22;74189;42.124;24.752;2023-11-22T11:36:26;11.80;67.20
80232;DHT22;74189;42.124;24.752;2023-11-22T11:38:54;11.80;66.90
80232;DHT22;74189;42.124;24.752;2023-11-22T11:41:28;11.90;67.00
80232;DHT22;74189;42.124;24.752;2023-11-22T11:43:55;11.90;67.20
80232;DHT22;74189;42.124;24.752;2023-11-22T11:46:20;11.90;67.20
80232;DHT22;74189;42.124;24.752;2023-11-22T11:48:49;11.90;67.20
80232;DHT22;74189;42.124;24.752;2023-11-22T11:51:22;11.90;66.90
80232;DHT22;74189;42.124;24.752;2023-11-22T11:53:48;11.90;64.90
80232;DHT22;74189;42.124;24.752;2023-11-22T11:56:14;11.80;63.40
80232;DHT22;74189;42.124;24.752;2023-11-22T11:58:44;11.70;63.50
80232;DHT22;74189;42.124;24.752;2023-11-22T12:01:15;11.70;64.30
80232;DHT22;74189;42.124;24.752;2023-11-22T12:03:48;11.60;65.30
80232;DHT22;74189;42.124;24.752;2023-11-22T12:06:15;11.60;65.60
80232;DHT22;74189;42.124;24.752;2023-11-22T12:08:42;11.60;65.20
80232;DHT22;74189;42.124;24.752;2023-11-22T12:11:07;11.60;65.10
80232;DHT22;74189;42.124;24.752;2023-11-22T12:13:34;11.60;65.30
80232;DHT22;74189;42.124;24.752;2023-11-22T12:16:05;11.50;66.40
80232;DHT22;74189;42.124;24.752;2023-11-22T12:18:55;11.50;66.10
80232;DHT22;74189;42.124;24.752;2023-11-22T12:21:22;11.50;65.60
80232;DHT22;74189;42.124;24.752;2023-11-22T12:23:48;11.50;65.80
80232;DHT22;74189;42.124;24.752;2023-11-22T12:26:15;11.50;66.30
80232;DHT22;74189;42.124;24.752;2023-11-22T12:28:45;11.50;66.50
80232;DHT22;74189;42.124;24.752;2023-11-22T12:31:13;11.50;66.40
80232;DHT22;74189;42.124;24.752;2023-11-22T12:33:40;11.60;66.60
80232;DHT22;74189;42.124;24.752;2023-11-22T12:36:07;11.60;66.80
80232;DHT22;74189;42.124;24.752;2023-11-22T12:38:37;11.60;66.80
80232;DHT22;74189;42.124;24.752;2023-11-22T12:41:05;11.60;66.90
80232;DHT22;74189;42.124;24.752;2023-11-22T12:43:32;11.70;67.20
80232;DHT22;74189;42.124;24.752;2023-11-22T12:46:07;11.70;67.10
80232;DHT22;74189;42.124;24.752;2023-11-22T12:48:37;11.70;66.70
80232;DHT22;74189;42.124;24.752;2023-11-22T12:51:03;11.70;66.40
80232;DHT22;74189;42.124;24.752;2023-11-22T12:53:39;11.70;66.50
80232;DHT22;74189;42.124;24.752;2023-11-22T12:56:06;11.70;66.50
80232;DHT22;74189;42.124;24.752;2023-11-22T12:58:33;11.70;66.60
80232;DHT22;74189;42.124;24.752;2023-11-22T13:00:58;11.70;66.70
80232;DHT22;74189;42.124;24.752;2023-11-22T13:03:26;11.70;66.90
80232;DHT22;74189;42.124;24.752;2023-11-22T13:05:52;11.70;67.30
80232;DHT22;74189;42.124;24.752;2023-11-22T13:08:18;11.80;67.80
80232;DHT22;74189;42.124;24.752;2023-11-22T13:10:45;11.70;67.60
80232;DHT22;74189;42.124;24.752;2023-11-22T13:13:23;11.80;67.60
80232;DHT22;74189;42.124;24.752;2023-11-22T13:15:49;11.80;67.80
80232;DHT22;74189;42.124;24.752;2023-11-22T13:18:16;11.80;67.90
80232;DHT22;74189;42.124;24.752;2023-11-22T13:20:42;11.80;68.20
80232;DHT22;74189;42.124;24.752;2023-11-22T13:23:08;11.90;68.50
80232;DHT22;74189;42.124;24.752;2023-11-22T13:25:34;11.90;68.70
80232;DHT22;74189;42.124;24.752;2023-11-22T13:28:00;11.90;68.70
80232;DHT22;74189;42.124;24.752;2023-11-22T13:30:26;11.90;68.70
80232;DHT22;74189;42.124;24.752;2023-11-22T13:32:53;12.00;68.80
80232;DHT22;74189;42.124;24.752;2023-11-22T13:35:22;12.00;68.80
80232;DHT22;74189;42.124;24.752;2023-11-22T13:37:48;12.10;68.70
80232;DHT22;74189;42.124;24.752;2023-11-22T13:40:18;12.10;68.60
80232;DHT22;74189;42.124;24.752;2023-11-22T13:42:49;12.10;68.30
80232;DHT22;74189;42.124;24.752;2023-11-22T13:45:16;12.10;68.10
80232;DHT22;74189;42.124;24.752;2023-11-22T13:50:18;12.20;68.00
80232;DHT22;74189;42.124;24.752;2023-11-22T13:53:03;12.20;67.90
80232;DHT22;74189;42.124;24.752;2023-11-22T13:55:30;12.20;67.90
80232;DHT22;74189;42.124;24.752;2023-11-22T13:58:00;12.20;67.80
80232;DHT22;74189;42.124;24.752;2023-11-22T14:00:27;12.30;67.70
80232;DHT22;74189;42.124;24.752;2023-11-22T14:02:58;12.30;67.60
80232;DHT22;74189;42.124;24.752;2023-11-22T14:05:30;12.20;67.50
80232;DHT22;74189;42.124;24.752;2023-11-22T14:07:56;12.30;67.40
80232;DHT22;74189;42.124;24.752;2023-11-22T14:10:22;12.30;67.40
80232;DHT22;74189;42.124;24.752;2023-11-22T14:12:51;12.30;67.40
80232;DHT22;74189;42.124;24.752;2023-11-22T14:15:18;12.30;67.30
80232;DHT22;74189;42.124;24.752;2023-11-22T14:17:45;12.30;67.20
80232;DHT22;74189;42.124;24.752;2023-11-22T14:20:15;12.30;67.20
80232;DHT22;74189;42.124;24.752;2023-11-22T14:22:40;12.30;67.30
80232;DHT22;74189;42.124;24.752;2023-11-22T14:25:08;12.30;67.30
80232;DHT22;74189;42.124;24.752;2023-11-22T14:27:44;12.30;67.50
80232;DHT22;74189;42.124;24.752;2023-11-22T14:30:14;12.20;67.80
80232;DHT22;74189;42.124;24.752;2023-11-22T14:32:42;12.20;68.20
80232;DHT22;74189;42.124;24.752;2023-11-22T14:35:10;12.30;68.40
80232;DHT22;74189;42.124;24.752;2023-11-22T14:37:36;12.30;68.50
80232;DHT22;74189;42.124;24.752;2023-11-22T14:40:07;12.20;68.50
80232;DHT22;74189;42.124;24.752;2023-11-22T14:42:43;12.30;68.40
80232;DHT22;74189;42.124;24.752;2023-11-22T14:45:11;12.30;68.40
80232;DHT22;74189;42.124;24.752;2023-11-22T14:47:37;12.30;68.40
80232;DHT22;74189;42.124;24.752;2023-11-22T14:50:05;12.20;68.40
80232;DHT22;74189;42.124;24.752;2023-11-22T14:52:31;12.20;68.40
80232;DHT22;74189;42.124;24.752;2023-11-22T14:54:56;12.20;68.40
80232;DHT22;74189;42.124;24.752;2023-11-22T14:57:25;12.20;68.40
80232;DHT22;74189;42.124;24.752;2023-11-22T14:59:51;12.20;68.50
80232;DHT22;74189;42.124;24.752;2023-11-22T15:02:17;12.20;68.50
80232;DHT22;74189;42.124;24.752;2023-11-22T15:04:44;12.20;68.50
80232;DHT22;74189;42.124;24.752;2023-11-22T15:07:09;12.20;68.50
80232;DHT22;74189;42.124;24.752;2023-11-22T15:09:37;12.20;68.60
80232;DHT22;74189;42.124;24.752;2023-11-22T15:12:03;12.20;68.70
80232;DHT22;74189;42.124;24.752;2023-11-22T15:14:32;12.10;68.70
80232;DHT22;74189;42.124;24.752;2023-11-22T15:16:59;12.10;68.80
80232;DHT22;74189;42.124;24.752;2023-11-22T15:19:29;12.10;68.90
80232;DHT22;74189;42.124;24.752;2023-11-22T15:21:56;12.10;69.90
80232;DHT22;74189;42.124;24.752;2023-11-22T15:24:21;12.10;68.90